createdAt,value
2023-01-01T00:04:13.067Z,19.73
2023-01-01T00:09:28.309Z,21.25
2023-01-01T00:14:26.267Z,21.20
2023-01-01T00:19:23.334Z,21.67
2023-01-01T00:24:20.213Z,21.20
2023-01-01T00:29:17.239Z,20.00
2023-01-01T00:34:15.019Z,16.67
2023-01-01T00:39:11.887Z,15.50
2023-01-01T00:44:08.954Z,16.40
2023-01-01T00:49:05.769Z,16.98
2023-01-01T00:54:03.551Z,17.15
2023-01-01T00:59:01.013Z,17.20
2023-01-01T01:03:58.933Z,16.95
2023-01-01T01:08:55.817Z,19.70
2023-01-01T01:13:57.437Z,18.27
2023-01-01T01:18:59.900Z,18.17
2023-01-01T01:23:59.188Z,18.55
2023-01-01T01:28:57.252Z,15.90
2023-01-01T01:33:54.295Z,17.67
2023-01-01T01:38:51.109Z,16.52
2023-01-01T01:43:52.960Z,19.25
2023-01-01T01:48:52.039Z,21.05
2023-01-01T01:53:54.304Z,20.88
2023-01-01T01:58:51.272Z,16.45
2023-01-01T02:03:58.502Z,16.90
2023-01-01T02:08:57.512Z,16.13
2023-01-01T02:13:56.251Z,21.50
2023-01-01T02:18:59.859Z,23.25
2023-01-01T02:24:21.014Z,17.42
2023-01-01T02:29:29.979Z,23.33
2023-01-01T02:34:31.389Z,19.60
2023-01-01T02:39:32.015Z,19.17
2023-01-01T02:44:35.616Z,21.25
2023-01-01T02:49:32.983Z,18.50
2023-01-01T02:54:37.751Z,18.30
2023-01-01T03:00:02.751Z,16.38
2023-01-01T03:05:08.139Z,18.02
2023-01-01T03:10:14.596Z,17.40
2023-01-01T03:15:21.582Z,17.20
2023-01-01T03:20:24.390Z,18.38
2023-01-01T03:25:25.561Z,20.13
2023-01-01T03:30:24.451Z,17.77
2023-01-01T03:35:24.961Z,17.33
2023-01-01T03:40:22.924Z,15.90
2023-01-01T03:45:25.523Z,15.82
2023-01-01T03:50:28.601Z,17.85
2023-01-01T03:55:32.892Z,21.45
2023-01-01T04:00:34.975Z,15.05
2023-01-01T04:05:35.552Z,17.80
2023-01-01T04:10:35.860Z,16.85
2023-01-01T04:15:35.377Z,15.52
2023-01-01T04:20:32.647Z,16.55
2023-01-01T04:25:29.704Z,13.98
2023-01-01T04:30:27.638Z,14.27
2023-01-01T04:35:25.317Z,15.73
2023-01-01T04:40:22.170Z,15.73
2023-01-01T04:45:18.998Z,12.93
2023-01-01T04:50:16.010Z,14.93
2023-01-01T04:55:13.768Z,15.20
2023-01-01T05:00:11.256Z,14.82
2023-01-01T05:05:08.840Z,12.40
2023-01-01T05:10:06.704Z,12.57
2023-01-01T05:15:05.119Z,11.02
2023-01-01T05:20:03.295Z,12.25
2023-01-01T05:25:00.168Z,13.00
2023-01-01T05:29:58.025Z,10.27
2023-01-01T05:34:56.219Z,12.18
2023-01-01T05:39:53.117Z,11.80
2023-01-01T05:44:50.035Z,8.93
2023-01-01T05:49:47.049Z,10.05
2023-01-01T05:54:44.623Z,9.27
2023-01-01T05:59:41.486Z,8.65
2023-01-01T06:04:38.378Z,9.00
2023-01-01T06:10:23.333Z,9.85
2023-01-01T06:16:30.534Z,11.50
2023-01-01T06:22:12.523Z,10.35
2023-01-01T06:28:26.841Z,10.25
2023-01-01T06:33:54.150Z,10.60
2023-01-01T06:45:00.520Z,11.20
2023-01-01T06:49:58.035Z,14.55
2023-01-01T06:56:00.051Z,13.55
2023-01-01T07:01:11.962Z,14.20
2023-01-01T07:06:09.975Z,15.13
2023-01-01T07:11:06.938Z,17.35
2023-01-01T07:16:12.110Z,13.35
2023-01-01T07:21:29.441Z,15.48
2023-01-01T07:26:29.043Z,13.48
2023-01-01T07:31:26.094Z,12.85
2023-01-01T07:36:24.014Z,13.65
2023-01-01T07:41:20.960Z,11.10
2023-01-01T07:46:19.121Z,10.90
2023-01-01T07:51:23.729Z,11.05
2023-01-01T07:56:31.248Z,10.48
2023-01-01T08:01:30.781Z,10.23
2023-01-01T08:12:24.433Z,11.60
2023-01-01T08:22:52.733Z,11.45
2023-01-01T08:27:55.479Z,9.27
2023-01-01T08:32:53.175Z,13.85
2023-01-01T08:37:56.178Z,11.93
2023-01-01T08:42:54.801Z,9.40
2023-01-01T08:47:51.857Z,10.18
2023-01-01T08:52:53.374Z,10.63
2023-01-01T08:58:14.174Z,8.55
2023-01-01T09:03:11.521Z,8.50
2023-01-01T09:08:09.296Z,9.40
2023-01-01T09:13:12.745Z,7.03
2023-01-01T09:18:14.050Z,9.75
2023-01-01T09:23:19.524Z,7.70
2023-01-01T09:28:23.364Z,8.70
2023-01-01T09:33:23.079Z,7.88
2023-01-01T09:38:21.078Z,10.57
2023-01-01T09:43:34.995Z,7.00
2023-01-01T09:48:40.698Z,8.45
2023-01-01T09:53:45.725Z,8.95
2023-01-01T09:58:44.413Z,8.83
2023-01-01T10:03:48.037Z,7.63
2023-01-01T10:09:00.636Z,9.60
2023-01-01T10:14:01.531Z,11.52
2023-01-01T10:19:06.052Z,8.68
2023-01-01T10:24:11.110Z,8.00
2023-01-01T10:29:19.779Z,6.93
2023-01-01T10:34:20.282Z,10.45
2023-01-01T10:39:19.961Z,8.43
2023-01-01T10:44:25.707Z,9.52
2023-01-01T10:49:24.395Z,8.60
2023-01-01T10:54:32.864Z,7.82
2023-01-01T10:59:37.169Z,7.93
2023-01-01T11:04:34.428Z,8.38
2023-01-01T11:09:31.950Z,8.15
2023-01-01T11:14:34.748Z,6.97
2023-01-01T11:19:37.004Z,7.70
2023-01-01T11:24:35.951Z,5.93
2023-01-01T11:29:33.370Z,5.90
2023-01-01T11:34:36.084Z,10.18
2023-01-01T11:39:36.753Z,5.55
2023-01-01T11:44:39.112Z,6.07
2023-01-01T11:49:37.393Z,5.63
2023-01-01T11:54:36.909Z,6.97
2023-01-01T12:00:10.494Z,9.05
2023-01-01T12:10:20.415Z,5.63
2023-01-01T12:15:24.551Z,6.75
2023-01-01T12:20:26.373Z,4.90
2023-01-01T12:25:23.507Z,7.50
2023-01-01T12:30:26.228Z,5.47
2023-01-01T12:35:43.787Z,7.28
2023-01-01T12:40:51.160Z,6.50
2023-01-01T12:46:20.464Z,5.03
2023-01-01T12:51:38.837Z,7.70
2023-01-01T12:56:46.150Z,6.07
2023-01-01T13:01:44.144Z,7.03
2023-01-01T13:06:50.046Z,5.78
2023-01-01T13:11:53.764Z,8.50
2023-01-01T13:16:53.205Z,6.25
2023-01-01T13:21:51.020Z,5.00
2023-01-01T13:26:51.663Z,6.00
2023-01-01T13:32:06.991Z,7.18
2023-01-01T13:37:31.991Z,10.65
2023-01-01T13:42:44.234Z,10.37
2023-01-01T13:48:12.670Z,10.65
2023-01-01T13:53:28.573Z,11.35
2023-01-01T13:59:11.711Z,8.98
2023-01-01T14:04:29.671Z,9.32
2023-01-01T14:09:31.288Z,11.23
2023-01-01T14:14:28.925Z,10.68
2023-01-01T14:19:27.565Z,12.52
2023-01-01T14:24:26.331Z,10.98
2023-01-01T14:29:27.933Z,10.98
2023-01-01T14:34:28.103Z,13.05
2023-01-01T14:39:28.000Z,12.95
2023-01-01T14:44:32.779Z,15.75
2023-01-01T14:49:34.929Z,17.00
2023-01-01T14:54:36.995Z,21.30
2023-01-01T14:59:36.237Z,23.33
2023-01-01T15:04:36.742Z,18.33
2023-01-01T15:09:37.545Z,18.38
2023-01-01T15:14:38.303Z,18.90
2023-01-01T15:19:36.946Z,24.17
2023-01-01T15:24:36.547Z,22.77
2023-01-01T15:29:35.918Z,24.13
2023-01-01T15:34:42.157Z,28.23
2023-01-01T15:39:47.002Z,34.40
2023-01-01T15:44:44.487Z,20.87
2023-01-01T15:49:43.065Z,39.85
2023-01-01T15:54:46.146Z,36.25
2023-01-01T15:59:43.753Z,48.78
2023-01-01T16:04:45.771Z,35.10
2023-01-01T16:09:43.901Z,36.88
2023-01-01T16:14:41.342Z,41.63
2023-01-01T16:19:38.405Z,42.70
2023-01-01T16:24:36.242Z,48.40
2023-01-01T16:29:33.224Z,40.00
2023-01-01T16:34:30.325Z,35.53
2023-01-01T16:39:27.159Z,47.15
2023-01-01T16:44:28.126Z,42.85
2023-01-01T16:49:25.579Z,43.97
2023-01-01T16:54:24.666Z,45.90
2023-01-01T16:59:26.605Z,33.47
2023-01-01T17:04:25.894Z,43.30
2023-01-01T17:09:23.078Z,41.33
2023-01-01T17:14:21.520Z,45.67
2023-01-01T17:19:25.421Z,39.53
2023-01-01T17:24:38.839Z,45.55
2023-01-01T17:29:45.479Z,41.13
2023-01-01T17:34:43.399Z,41.38
2023-01-01T17:39:44.068Z,37.28
2023-01-01T17:44:50.367Z,42.10
2023-01-01T17:49:50.126Z,43.70
2023-01-01T17:54:51.181Z,55.00
2023-01-01T17:59:48.369Z,87.55
2023-01-01T18:04:45.417Z,83.68
2023-01-01T18:09:44.002Z,72.20
2023-01-01T18:14:42.001Z,67.43
2023-01-01T18:19:38.850Z,76.88
2023-01-01T18:24:35.947Z,71.03
2023-01-01T18:29:33.392Z,73.65
2023-01-01T18:34:32.335Z,70.30
2023-01-01T18:39:32.745Z,70.35
2023-01-01T18:44:32.030Z,66.15
2023-01-01T18:49:30.163Z,64.45
2023-01-01T18:54:29.656Z,59.03
2023-01-01T18:59:27.277Z,60.70
2023-01-01T19:04:24.135Z,56.92
2023-01-01T19:09:22.935Z,55.08
2023-01-01T19:14:28.180Z,52.95
2023-01-01T19:19:27.802Z,50.75
2023-01-01T19:24:27.475Z,47.28
2023-01-01T19:29:29.936Z,60.30
2023-01-01T19:34:26.735Z,55.83
2023-01-01T19:39:23.698Z,48.40
2023-01-01T19:44:25.420Z,46.20
2023-01-01T19:49:25.021Z,46.00
2023-01-01T19:54:22.501Z,41.50
2023-01-01T19:59:20.310Z,60.45
2023-01-01T20:04:17.457Z,55.85
2023-01-01T20:09:16.078Z,51.67
2023-01-01T20:14:46.308Z,45.90
2023-01-01T20:19:43.774Z,43.80
2023-01-01T20:24:42.360Z,41.35
2023-01-01T20:29:50.314Z,31.88
2023-01-01T20:34:47.870Z,35.08
2023-01-01T20:39:49.691Z,37.45
2023-01-01T20:44:46.638Z,31.92
2023-01-01T20:49:43.971Z,34.03
2023-01-01T20:54:41.016Z,34.30
2023-01-01T20:59:38.886Z,32.10
2023-01-01T21:04:37.641Z,29.45
2023-01-01T21:09:34.709Z,30.13
2023-01-01T21:14:32.002Z,29.65
2023-01-01T21:19:29.531Z,28.83
2023-01-01T21:24:28.407Z,34.08
2023-01-01T21:29:27.244Z,26.20
2023-01-01T21:34:32.072Z,25.80
2023-01-01T21:39:30.871Z,23.45
2023-01-01T21:44:27.955Z,25.02
2023-01-01T21:55:47.909Z,26.67
2023-01-01T22:00:45.311Z,23.05
2023-01-01T22:05:42.326Z,23.95
2023-01-01T22:10:40.005Z,23.75
2023-01-01T22:15:39.978Z,27.17
2023-01-01T22:20:39.083Z,24.50
2023-01-01T22:25:39.697Z,22.33
2023-01-01T22:30:41.199Z,17.05
2023-01-01T22:35:38.081Z,18.63
2023-01-01T22:40:37.245Z,16.58
2023-01-01T22:45:39.423Z,23.10
2023-01-01T22:50:36.659Z,20.23
2023-01-01T22:55:33.401Z,20.10
2023-01-01T23:00:30.669Z,17.35
2023-01-01T23:05:28.587Z,22.67
2023-01-01T23:10:25.508Z,22.98
2023-01-01T23:15:40.392Z,24.80
2023-01-01T23:20:37.965Z,22.23
2023-01-01T23:25:34.778Z,20.75
2023-01-01T23:30:35.117Z,20.05
2023-01-01T23:35:32.183Z,22.48
2023-01-01T23:40:29.669Z,19.60
2023-01-01T23:45:28.850Z,21.30
2023-01-01T23:50:25.798Z,22.65
2023-01-01T23:55:22.581Z,20.70
